createdAt,value
2017-04-27T00:01:38.295Z,90.05
2017-04-27T00:06:33.783Z,89.67
2017-04-27T00:11:29.373Z,89.86
2017-04-27T00:16:25.257Z,89.58
2017-04-27T00:21:20.989Z,89.76
2017-04-27T00:26:16.673Z,89.67
2017-04-27T00:31:12.418Z,89.95
2017-04-27T00:36:08.007Z,90.05
2017-04-27T00:41:03.591Z,89.76
2017-04-27T00:45:59.295Z,90.33
2017-04-27T00:50:55.503Z,89.86
2017-04-27T00:55:51.212Z,89.76
2017-04-27T01:00:47.448Z,90.14
2017-04-27T01:05:43.223Z,90.14
2017-04-27T01:10:38.985Z,89.10
2017-04-27T01:15:34.509Z,89.29
2017-04-27T01:20:30.190Z,89.29
2017-04-27T01:25:25.921Z,89.10
2017-04-27T01:30:21.699Z,89.20
2017-04-27T01:35:17.240Z,90.14
2017-04-27T01:40:13.327Z,89.10
2017-04-27T01:45:08.659Z,89.20
2017-04-27T01:50:04.681Z,89.29
2017-04-27T01:55:00.253Z,89.29
2017-04-27T01:59:55.981Z,89.29
2017-04-27T02:04:51.621Z,89.29
2017-04-27T02:09:47.411Z,89.10
2017-04-27T02:14:43.092Z,90.29
2017-04-27T02:19:38.687Z,90.48
2017-04-27T02:24:34.367Z,90.76
2017-04-27T02:29:29.696Z,91.52
2017-04-27T02:34:25.612Z,92.28
2017-04-27T02:39:20.979Z,91.99
2017-04-27T02:44:16.471Z,93.37
2017-04-27T02:49:12.786Z,93.18
2017-04-27T02:54:08.723Z,94.04
2017-04-27T02:59:04.492Z,94.51
2017-04-27T03:04:00.010Z,94.42
2017-04-27T03:08:55.768Z,93.75
2017-04-27T03:13:51.420Z,93.75
2017-04-27T03:18:49.051Z,93.18
2017-04-27T03:23:44.019Z,93.56
2017-04-27T03:28:39.501Z,94.51
2017-04-27T03:33:38.514Z,94.79
2017-04-27T03:38:33.708Z,94.70
2017-04-27T03:43:29.279Z,94.51
2017-04-27T03:48:25.198Z,94.23
2017-04-27T03:53:20.789Z,95.60
2017-04-27T03:58:16.456Z,95.41
2017-04-27T04:03:11.986Z,95.74
2017-04-27T04:08:07.647Z,94.70
2017-04-27T04:13:04.302Z,95.45
2017-04-27T04:17:59.580Z,94.60
2017-04-27T04:22:55.089Z,95.36
2017-04-27T04:27:51.794Z,94.70
2017-04-27T04:32:47.216Z,95.12
2017-04-27T04:37:42.711Z,96.26
2017-04-27T04:42:38.971Z,95.45
2017-04-27T04:47:34.910Z,93.56
2017-04-27T04:52:30.571Z,93.08
2017-04-27T04:57:26.646Z,93.27
2017-04-27T05:02:22.394Z,92.80
2017-04-27T05:07:18.273Z,92.52
2017-04-27T05:12:14.531Z,93.08
2017-04-27T05:17:10.272Z,92.38
2017-04-27T05:22:06.175Z,91.42
2017-04-27T05:27:02.216Z,91.61
2017-04-27T05:31:58.593Z,90.67
2017-04-27T05:36:54.385Z,90.29
2017-04-27T05:41:50.095Z,90.43
2017-04-27T05:46:45.932Z,89.67
2017-04-27T05:51:41.671Z,89.39
2017-04-27T05:56:37.473Z,89.20
2017-04-27T06:01:33.338Z,88.91
2017-04-27T06:06:29.726Z,87.77
2017-04-27T06:11:25.673Z,88.15
2017-04-27T06:16:21.320Z,87.49
2017-04-27T06:21:17.825Z,86.87
2017-04-27T06:26:13.252Z,86.87
2017-04-27T06:31:09.184Z,86.01
2017-04-27T06:36:04.861Z,85.25
2017-04-27T06:41:00.499Z,85.06
2017-04-27T06:45:56.190Z,84.30
2017-04-27T06:50:52.281Z,83.73
2017-04-27T06:55:47.908Z,82.50
2017-04-27T07:00:43.657Z,82.73
2017-04-27T07:05:39.460Z,82.45
2017-04-27T07:10:35.570Z,80.64
2017-04-27T07:15:31.299Z,80.74
2017-04-27T07:20:27.210Z,80.64
2017-04-27T07:25:23.049Z,78.88
2017-04-27T07:30:19.027Z,76.50
2017-04-27T07:35:15.802Z,75.64
2017-04-27T07:40:11.677Z,73.27
2017-04-27T07:45:07.523Z,74.12
2017-04-27T07:50:03.508Z,74.22
2017-04-27T07:54:59.274Z,71.46
2017-04-27T07:59:57.019Z,69.50
2017-04-27T08:04:53.782Z,68.24
2017-04-27T08:09:51.971Z,61.32
2017-04-27T08:14:47.366Z,63.48
2017-04-27T08:19:42.364Z,63.10
2017-04-27T08:24:39.422Z,60.08
2017-04-27T08:29:37.643Z,52.59
2017-04-27T08:34:33.817Z,49.92
2017-04-27T08:39:27.907Z,53.61
2017-04-27T08:44:22.506Z,56.05
2017-04-27T08:49:17.749Z,53.89
2017-04-27T08:54:14.314Z,53.06
2017-04-27T08:59:11.031Z,52.78
2017-04-27T09:04:09.274Z,47.23
2017-04-27T09:09:07.726Z,47.52
2017-04-27T09:14:02.252Z,47.32
2017-04-27T09:18:57.555Z,49.51
2017-04-27T09:23:53.651Z,48.68
2017-04-27T09:28:50.613Z,45.47
2017-04-27T09:33:47.095Z,45.13
2017-04-27T09:38:44.656Z,44.06
2017-04-27T09:43:42.521Z,41.60
2017-04-27T09:48:37.117Z,41.20
2017-04-27T09:53:32.526Z,47.11
2017-04-27T09:58:30.875Z,45.49
2017-04-27T10:03:28.222Z,41.03
2017-04-27T10:08:24.670Z,41.05
2017-04-27T10:13:20.314Z,41.60
2017-04-27T10:18:17.327Z,41.91
2017-04-27T10:23:19.844Z,45.67
2017-04-27T10:28:17.770Z,39.39
2017-04-27T10:33:14.761Z,38.43
2017-04-27T10:38:07.462Z,42.17
2017-04-27T10:43:00.326Z,45.29
2017-04-27T10:47:55.091Z,45.01
2017-04-27T10:52:50.731Z,43.39
2017-04-27T10:57:45.572Z,43.49
2017-04-27T11:02:43.948Z,45.97
2017-04-27T11:07:38.316Z,49.08
2017-04-27T11:17:33.615Z,47.47
2017-04-27T11:22:35.241Z,42.29
2017-04-27T11:27:32.426Z,39.35
2017-04-27T11:32:29.325Z,39.94
2017-04-27T11:37:27.155Z,38.79
2017-04-27T11:42:23.884Z,38.79
2017-04-27T11:47:16.509Z,39.81
2017-04-27T11:52:09.535Z,43.41
2017-04-27T11:57:05.382Z,44.37
2017-04-27T12:02:00.538Z,42.74
2017-04-27T12:06:57.623Z,44.53
2017-04-27T12:11:56.495Z,42.38
2017-04-27T12:16:54.017Z,39.92
2017-04-27T12:21:50.547Z,37.55
2017-04-27T12:26:44.175Z,37.73
2017-04-27T12:31:37.733Z,41.74
2017-04-27T12:36:34.508Z,40.78
2017-04-27T12:41:28.209Z,40.86
2017-04-27T12:46:25.421Z,41.03
2017-04-27T12:51:24.423Z,40.47
2017-04-27T12:56:21.481Z,39.54
2017-04-27T13:01:14.790Z,40.19
2017-04-27T13:06:10.114Z,39.42
2017-04-27T13:11:04.567Z,40.93
2017-04-27T13:16:01.105Z,41.52
2017-04-27T13:20:55.627Z,41.98
2017-04-27T13:25:52.119Z,43.60
2017-04-27T13:30:47.037Z,43.32
2017-04-27T13:35:42.314Z,44.56
2017-04-27T13:40:38.158Z,42.96
2017-04-27T13:45:33.900Z,45.03
2017-04-27T13:50:29.354Z,44.56
2017-04-27T13:55:24.956Z,47.87
2017-04-27T14:05:24.958Z,43.27
2017-04-27T14:10:21.283Z,42.51
2017-04-27T14:15:16.763Z,42.72
2017-04-27T14:20:13.503Z,42.65
2017-04-27T14:25:10.138Z,43.51
2017-04-27T14:30:06.472Z,43.72
2017-04-27T14:35:02.479Z,44.48
2017-04-27T14:39:57.800Z,44.77
2017-04-27T14:44:53.026Z,45.53
2017-04-27T14:49:51.177Z,45.87
2017-04-27T14:59:52.502Z,54.80
2017-04-27T15:04:48.601Z,56.14
2017-04-27T15:09:52.104Z,58.30
2017-04-27T15:14:45.975Z,58.21
2017-04-27T15:19:41.455Z,57.16
2017-04-27T15:24:39.729Z,56.11
2017-04-27T15:29:35.481Z,56.97
2017-04-27T15:34:30.921Z,55.92
2017-04-27T15:39:27.015Z,54.80
2017-04-27T15:44:23.354Z,53.76
2017-04-27T15:49:20.368Z,52.36
2017-04-27T15:54:15.644Z,51.18
2017-04-27T15:59:11.731Z,50.90
2017-04-27T16:04:07.193Z,52.80
2017-04-27T16:09:02.829Z,51.56
2017-04-27T16:13:58.385Z,52.80
2017-04-27T16:18:53.994Z,54.04
2017-04-27T16:23:49.627Z,55.00
2017-04-27T16:28:46.040Z,56.11
2017-04-27T16:33:42.067Z,56.02
2017-04-27T16:38:40.532Z,57.38
2017-04-27T16:43:35.757Z,55.85
2017-04-27T16:48:32.768Z,53.73
2017-04-27T16:53:27.908Z,52.68
2017-04-27T16:58:23.445Z,52.97
2017-04-27T17:03:19.605Z,51.25
2017-04-27T17:08:15.194Z,51.35
2017-04-27T17:13:10.957Z,52.59
2017-04-27T17:18:06.709Z,52.87
2017-04-27T17:23:03.236Z,51.54
2017-04-27T17:27:59.453Z,53.54
2017-04-27T17:32:55.286Z,54.78
2017-04-27T17:37:50.589Z,56.75
2017-04-27T17:42:46.736Z,57.60
2017-04-27T17:47:42.140Z,57.13
2017-04-27T17:52:38.020Z,57.23
2017-04-27T17:57:33.893Z,57.13
2017-04-27T18:02:30.113Z,57.80
2017-04-27T18:17:25.802Z,59.61
2017-04-27T18:22:21.417Z,59.96
2017-04-27T18:27:16.892Z,59.67
2017-04-27T18:37:11.809Z,57.77
2017-04-27T18:42:08.133Z,58.25
2017-04-27T18:47:04.571Z,57.58
2017-04-27T18:52:06.054Z,58.62
2017-04-27T18:57:00.386Z,59.01
2017-04-27T19:06:58.630Z,60.05
2017-04-27T19:11:54.290Z,60.44
2017-04-27T19:16:52.552Z,61.19
2017-04-27T19:26:49.494Z,62.69
2017-04-27T19:36:46.956Z,63.45
2017-04-27T19:41:42.526Z,64.97
2017-04-27T19:46:38.903Z,65.25
2017-04-27T19:56:38.060Z,65.32
2017-04-27T20:01:33.343Z,65.80
2017-04-27T20:06:28.843Z,65.80
2017-04-27T20:11:28.097Z,66.55
2017-04-27T20:16:25.738Z,66.94
2017-04-27T20:21:20.775Z,67.79
2017-04-27T20:26:19.554Z,67.50
2017-04-27T20:31:14.617Z,68.36
2017-04-27T20:36:10.922Z,68.46
2017-04-27T20:41:06.808Z,69.21
2017-04-27T20:46:06.507Z,68.46
2017-04-27T20:51:04.701Z,69.02
2017-04-27T20:55:59.945Z,69.60
2017-04-27T21:00:55.604Z,69.41
2017-04-27T21:05:52.310Z,69.98
2017-04-27T21:10:48.086Z,70.45
2017-04-27T21:20:44.179Z,70.74
2017-04-27T21:30:43.446Z,71.50
2017-04-27T21:35:42.307Z,71.18
2017-04-27T21:40:40.007Z,71.84
2017-04-27T21:45:37.866Z,73.27
2017-04-27T21:50:48.203Z,71.56
2017-04-27T21:55:41.668Z,72.03
2017-04-27T22:00:42.246Z,72.32
2017-04-27T22:05:38.977Z,73.84
2017-04-27T22:10:37.869Z,74.03
2017-04-27T22:20:34.208Z,75.51
2017-04-27T22:25:29.210Z,76.18
2017-04-27T22:45:36.193Z,77.41
2017-04-27T22:50:32.110Z,78.17
2017-04-27T22:55:28.850Z,78.83
2017-04-27T23:05:24.209Z,79.22
2017-04-27T23:10:20.248Z,78.70
2017-04-27T23:15:16.472Z,79.50
2017-04-27T23:20:12.014Z,78.80
2017-04-27T23:25:11.395Z,79.94
2017-04-27T23:30:07.240Z,79.36
2017-04-27T23:35:02.772Z,79.36
2017-04-27T23:39:59.135Z,79.84
2017-04-27T23:49:56.205Z,78.99
2017-04-27T23:54:52.032Z,79.27
